createdAt,value
2023-01-20T00:01:43.432Z,100914.28
2023-01-20T00:04:10.271Z,100917.00
2023-01-20T00:06:36.893Z,100921.34
2023-01-20T00:09:05.553Z,100924.34
2023-01-20T00:11:32.635Z,100924.06
2023-01-20T00:14:01.603Z,100924.06
2023-01-20T00:16:29.418Z,100916.72
2023-01-20T00:18:56.093Z,100926.53
2023-01-20T00:21:23.267Z,100931.16
2023-01-20T00:23:50.167Z,100922.72
2023-01-20T00:26:22.428Z,100933.59
2023-01-20T00:28:50.271Z,100925.72
2023-01-20T00:31:19.721Z,100928.97
2023-01-20T00:33:47.997Z,100929.78
2023-01-20T00:36:16.020Z,100931.69
2023-01-20T00:38:43.299Z,100930.03
2023-01-20T00:41:10.624Z,100931.69
2023-01-20T00:43:37.633Z,100924.34
2023-01-20T00:46:05.574Z,100928.97
2023-01-20T00:48:33.108Z,100919.72
2023-01-20T00:51:00.272Z,100919.72
2023-01-20T00:53:26.998Z,100925.19
2023-01-20T00:55:53.679Z,100928.97
2023-01-20T00:58:20.387Z,100930.88
2023-01-20T01:00:48.195Z,100927.31
2023-01-20T01:03:15.300Z,100930.03
2023-01-20T01:05:42.798Z,100923.53
2023-01-20T01:08:09.855Z,100917.00
2023-01-20T01:10:36.478Z,100928.44
2023-01-20T01:13:04.715Z,100926.78
2023-01-20T01:15:31.465Z,100923.53
2023-01-20T01:17:59.749Z,100934.41
2023-01-20T01:20:28.225Z,100925.72
2023-01-20T01:22:55.959Z,100924.59
2023-01-20T01:25:23.045Z,100925.44
2023-01-20T01:27:50.073Z,100926.78
2023-01-20T01:30:16.991Z,100925.72
2023-01-20T01:32:43.688Z,100924.88
2023-01-20T01:35:10.491Z,100930.34
2023-01-20T01:37:37.301Z,100925.97
2023-01-20T01:40:04.451Z,100931.69
2023-01-20T01:42:31.077Z,100930.03
2023-01-20T01:45:13.414Z,100936.03
2023-01-20T01:47:48.484Z,100927.31
2023-01-20T01:50:22.643Z,100931.41
2023-01-20T01:52:53.153Z,100932.75
2023-01-20T01:55:23.065Z,100924.06
2023-01-20T01:57:51.022Z,100939.84
2023-01-20T02:00:17.724Z,100942.81
2023-01-20T02:02:45.791Z,100954.50
2023-01-20T02:05:14.981Z,100937.09
2023-01-20T02:07:45.216Z,100950.13
2023-01-20T02:10:12.959Z,100954.78
2023-01-20T02:12:41.221Z,100951.22
2023-01-20T02:15:08.532Z,100952.31
2023-01-20T02:17:44.059Z,100960.47
2023-01-20T02:20:22.124Z,100967.56
2023-01-20T02:23:11.681Z,100970.53
2023-01-20T02:25:47.293Z,100969.69
2023-01-20T02:28:35.027Z,100977.84
2023-01-20T02:31:39.406Z,100970.81
2023-01-20T02:34:26.064Z,100973.25
2023-01-20T02:37:00.169Z,100974.06
2023-01-20T02:39:33.004Z,100984.94
2023-01-20T02:42:10.758Z,100980.31
2023-01-20T02:44:50.989Z,100984.94
2023-01-20T02:47:31.912Z,100984.94
2023-01-20T02:50:11.589Z,100984.13
2023-01-20T02:52:44.409Z,100991.22
2023-01-20T02:55:17.586Z,100989.31
2023-01-20T02:57:48.727Z,100993.66
2023-01-20T03:02:58.603Z,100985.75
2023-01-20T03:05:46.983Z,100991.44
2023-01-20T03:08:15.849Z,100996.34
2023-01-20T03:10:45.476Z,100994.16
2023-01-20T03:13:52.657Z,100999.59
2023-01-20T03:16:23.296Z,101007.53
2023-01-20T03:18:51.660Z,101001.25
2023-01-20T03:21:19.192Z,101003.97
2023-01-20T03:23:51.691Z,101010.50
2023-01-20T03:26:20.960Z,101010.50
2023-01-20T03:28:48.965Z,101014.31
2023-01-20T03:31:20.977Z,101008.88
2023-01-20T03:33:50.348Z,101016.22
2023-01-20T03:36:18.913Z,101020.56
2023-01-20T03:38:46.179Z,101017.03
2023-01-20T03:41:41.128Z,101005.59
2023-01-20T03:44:29.028Z,101013.50
2023-01-20T03:47:18.285Z,101014.84
2023-01-20T03:50:17.080Z,101004.78
2023-01-20T03:53:05.906Z,101008.56
2023-01-20T03:55:53.083Z,101012.13
2023-01-20T03:58:27.172Z,101004.78
2023-01-20T04:00:55.228Z,101011.84
2023-01-20T04:03:29.093Z,101002.91
2023-01-20T04:05:59.871Z,101010.22
2023-01-20T04:08:30.840Z,101008.34
2023-01-20T04:11:00.683Z,101009.94
2023-01-20T04:13:28.373Z,101017.03
2023-01-20T04:15:56.780Z,101017.56
2023-01-20T04:18:24.629Z,101022.19
2023-01-20T04:21:02.056Z,101017.56
2023-01-20T04:23:28.678Z,101017.56
2023-01-20T04:25:55.454Z,101026.00
2023-01-20T04:28:22.159Z,101018.66
2023-01-20T04:30:48.939Z,101010.50
2023-01-20T04:33:15.654Z,101015.94
2023-01-20T04:35:42.284Z,101006.41
2023-01-20T04:38:09.054Z,101007.50
2023-01-20T04:40:35.812Z,101008.34
2023-01-20T04:43:02.432Z,101002.91
2023-01-20T04:45:29.093Z,101017.28
2023-01-20T04:47:55.689Z,101013.50
2023-01-20T04:50:22.363Z,101025.19
2023-01-20T04:52:49.037Z,101021.94
2023-01-20T04:55:16.174Z,101024.06
2023-01-20T04:57:42.911Z,101021.63
2023-01-20T05:00:11.597Z,101022.16
2023-01-20T05:02:38.382Z,101020.25
2023-01-20T05:05:05.339Z,101015.06
2023-01-20T05:07:31.952Z,101010.41
2023-01-20T05:09:58.642Z,101015.84
2023-01-20T05:12:25.254Z,101014.75
2023-01-20T05:14:51.930Z,101015.25
2023-01-20T05:17:18.642Z,101014.69
2023-01-20T05:19:45.388Z,101032.31
2023-01-20T05:22:12.072Z,101030.19
2023-01-20T05:24:38.688Z,101031.25
2023-01-20T05:27:05.312Z,101046.69
2023-01-20T05:29:32.353Z,101034.75
2023-01-20T05:31:59.043Z,101038.03
2023-01-20T05:34:25.847Z,101039.09
2023-01-20T05:36:53.915Z,101040.72
2023-01-20T05:39:21.344Z,101033.31
2023-01-20T05:41:48.030Z,101037.66
2023-01-20T05:44:15.760Z,101039.00
2023-01-20T05:46:42.550Z,101038.69
2023-01-20T05:49:11.408Z,101040.06
2023-01-20T05:51:38.294Z,101046.09
2023-01-20T05:54:04.982Z,101040.66
2023-01-20T05:56:32.697Z,101042.25
2023-01-20T05:58:59.549Z,101049.56
2023-01-20T06:01:26.302Z,101057.44
2023-01-20T06:03:53.065Z,101047.09
2023-01-20T06:06:20.497Z,101048.69
2023-01-20T06:08:47.225Z,101046.47
2023-01-20T06:11:14.920Z,101045.94
2023-01-20T06:13:41.684Z,101052.50
2023-01-20T06:16:08.366Z,101048.69
2023-01-20T06:18:35.284Z,101054.09
2023-01-20T06:21:02.047Z,101055.44
2023-01-20T06:23:29.071Z,101060.84
2023-01-20T06:26:14.193Z,101066.56
2023-01-20T06:28:41.153Z,101069.00
2023-01-20T06:31:10.924Z,101077.13
2023-01-20T06:33:37.631Z,101079.03
2023-01-20T06:36:05.412Z,101079.31
2023-01-20T06:38:33.667Z,101070.84
2023-01-20T06:41:06.225Z,101079.25
2023-01-20T06:43:34.130Z,101075.16
2023-01-20T06:46:02.510Z,101067.78
2023-01-20T06:48:29.421Z,101079.97
2023-01-20T06:51:14.128Z,101076.72
2023-01-20T06:53:41.489Z,101082.91
2023-01-20T06:56:10.590Z,101072.56
2023-01-20T06:58:37.354Z,101073.34
2023-01-20T07:01:08.810Z,101077.63
2023-01-20T07:03:36.198Z,101087.44
2023-01-20T07:06:15.561Z,101081.69
2023-01-20T07:08:44.093Z,101078.69
2023-01-20T07:11:12.713Z,101078.38
2023-01-20T07:13:39.671Z,101088.72
2023-01-20T07:16:08.873Z,101097.09
2023-01-20T07:18:37.843Z,101102.53
2023-01-20T07:21:05.004Z,101097.16
2023-01-20T07:23:33.693Z,101100.97
2023-01-20T07:26:06.193Z,101099.81
2023-01-20T07:28:33.058Z,101110.94
2023-01-20T07:31:10.011Z,101107.97
2023-01-20T07:33:37.370Z,101111.19
2023-01-20T07:36:05.241Z,101119.31
2023-01-20T07:38:31.929Z,101119.31
2023-01-20T07:41:05.076Z,101117.19
2023-01-20T07:43:32.504Z,101112.84
2023-01-20T07:46:01.541Z,101107.66
2023-01-20T07:48:30.965Z,101121.53
2023-01-20T07:51:02.857Z,101130.00
2023-01-20T07:53:30.592Z,101130.25
2023-01-20T07:56:01.302Z,101122.63
2023-01-20T07:58:30.000Z,101126.41
2023-01-20T08:00:56.808Z,101126.41
2023-01-20T08:03:25.413Z,101125.78
2023-01-20T08:05:53.913Z,101126.91
2023-01-20T08:08:20.652Z,101126.66
2023-01-20T08:10:54.032Z,101129.06
2023-01-20T08:13:20.968Z,101133.44
2023-01-20T08:15:47.686Z,101128.56
2023-01-20T08:18:14.372Z,101126.91
2023-01-20T08:20:41.861Z,101133.16
2023-01-20T08:23:08.540Z,101136.88
2023-01-20T08:25:35.261Z,101146.34
2023-01-20T08:28:02.700Z,101143.66
2023-01-20T08:30:31.592Z,101154.75
2023-01-20T08:32:58.219Z,101147.50
2023-01-20T08:35:24.833Z,101150.78
2023-01-20T08:37:51.584Z,101158.66
2023-01-20T08:40:18.395Z,101160.03
2023-01-20T08:42:46.408Z,101149.19
2023-01-20T08:45:13.498Z,101148.63
2023-01-20T08:47:46.352Z,101154.09
2023-01-20T08:50:14.929Z,101154.16
2023-01-20T08:52:42.395Z,101163.69
2023-01-20T08:55:10.533Z,101156.38
2023-01-20T08:57:37.470Z,101165.66
2023-01-20T09:00:09.468Z,101159.41
2023-01-20T09:02:37.528Z,101166.22
2023-01-20T09:05:05.563Z,101174.34
2023-01-20T09:07:32.208Z,101172.16
2023-01-20T09:09:58.812Z,101167.81
2023-01-20T09:12:25.575Z,101174.03
2023-01-20T09:14:52.830Z,101180.34
2023-01-20T09:17:19.496Z,101177.94
2023-01-20T09:19:46.148Z,101189.94
2023-01-20T09:22:12.797Z,101185.97
2023-01-20T09:24:40.459Z,101186.56
2023-01-20T09:27:07.105Z,101194.22
2023-01-20T09:29:34.907Z,101190.44
2023-01-20T09:32:01.558Z,101193.78
2023-01-20T09:34:30.664Z,101205.25
2023-01-20T09:37:19.938Z,101193.09
2023-01-20T09:40:05.814Z,101194.00
2023-01-20T09:43:08.068Z,101192.47
2023-01-20T09:45:44.442Z,101203.38
2023-01-20T09:48:41.339Z,101202.88
2023-01-20T09:51:36.295Z,101190.38
2023-01-20T09:54:23.254Z,101200.78
2023-01-20T09:56:52.816Z,101205.19
2023-01-20T09:59:32.424Z,101217.78
2023-01-20T10:02:03.699Z,101211.84
2023-01-20T10:04:46.205Z,101220.59
2023-01-20T10:07:15.862Z,101222.81
2023-01-20T10:09:57.742Z,101221.50
2023-01-20T10:12:30.159Z,101227.28
2023-01-20T10:15:12.652Z,101227.84
2023-01-20T10:17:58.006Z,101236.66
2023-01-20T10:20:30.580Z,101237.75
2023-01-20T10:23:11.016Z,101225.81
2023-01-20T10:26:04.721Z,101237.28
2023-01-20T10:28:37.866Z,101235.41
2023-01-20T10:31:05.551Z,101232.44
2023-01-20T10:33:37.593Z,101234.06
2023-01-20T10:36:08.744Z,101235.19
2023-01-20T10:38:38.559Z,101239.59
2023-01-20T10:41:05.270Z,101243.41
2023-01-20T10:43:32.341Z,101241.22
2023-01-20T10:46:04.171Z,101258.69
2023-01-20T10:49:02.764Z,101258.72
2023-01-20T10:52:04.370Z,101253.81
2023-01-20T10:54:42.125Z,101260.09
2023-01-20T10:57:15.238Z,101263.66
2023-01-20T11:00:03.039Z,101272.13
2023-01-20T11:02:34.939Z,101268.59
2023-01-20T11:05:03.439Z,101269.16
2023-01-20T11:07:33.413Z,101266.44
2023-01-20T11:10:15.478Z,101268.06
2023-01-20T11:12:44.369Z,101263.72
2023-01-20T11:15:33.502Z,101268.88
2023-01-20T11:18:15.417Z,101282.28
2023-01-20T11:20:43.604Z,101282.81
2023-01-20T11:23:22.478Z,101285.53
2023-01-20T11:26:01.611Z,101290.16
2023-01-20T11:28:36.998Z,101291.00
2023-01-20T11:31:04.698Z,101269.72
2023-01-20T11:33:31.533Z,101278.69
2023-01-20T11:36:00.859Z,101274.91
2023-01-20T11:38:30.907Z,101273.28
2023-01-20T11:40:57.864Z,101281.44
2023-01-20T11:43:52.267Z,101272.41
2023-01-20T11:46:27.890Z,101281.13
2023-01-20T11:49:22.613Z,101275.13
2023-01-20T11:51:55.101Z,101289.06
2023-01-20T11:54:30.064Z,101281.16
2023-01-20T11:57:07.698Z,101276.75
2023-01-20T11:59:36.776Z,101278.13
2023-01-20T12:02:09.802Z,101284.41
2023-01-20T12:04:57.921Z,101281.13
2023-01-20T12:07:30.243Z,101289.03
2023-01-20T12:10:04.641Z,101287.13
2023-01-20T12:12:43.174Z,101285.47
2023-01-20T12:15:29.368Z,101287.91
2023-01-20T12:18:20.361Z,101291.97
2023-01-20T12:20:59.148Z,101279.94
2023-01-20T12:23:48.778Z,101276.66
2023-01-20T12:26:18.177Z,101275.56
2023-01-20T12:29:20.504Z,101271.72
2023-01-20T12:31:49.402Z,101276.34
2023-01-20T12:34:24.431Z,101282.88
2023-01-20T12:37:09.827Z,101279.31
2023-01-20T12:39:36.448Z,101280.41
2023-01-20T12:42:37.251Z,101266.16
2023-01-20T12:45:21.253Z,101279.25
2023-01-20T12:48:26.935Z,101271.59
2023-01-20T12:50:56.594Z,101280.34
2023-01-20T12:53:38.843Z,101280.88
2023-01-20T12:56:17.678Z,101278.41
2023-01-20T12:58:48.205Z,101280.03
2023-01-20T13:01:34.080Z,101284.09
2023-01-20T13:04:46.091Z,101284.91
2023-01-20T13:07:40.735Z,101295.00
2023-01-20T13:10:26.228Z,101286.50
2023-01-20T13:13:30.582Z,101282.63
2023-01-20T13:16:03.229Z,101279.88
2023-01-20T13:18:43.830Z,101286.16
2023-01-20T13:21:19.149Z,101276.84
2023-01-20T13:23:46.680Z,101274.06
2023-01-20T13:26:14.083Z,101266.63
2023-01-20T13:28:51.568Z,101276.16
2023-01-20T13:31:53.679Z,101274.97
2023-01-20T13:34:23.040Z,101291.31
2023-01-20T13:37:07.150Z,101288.81
2023-01-20T13:39:41.472Z,101290.66
2023-01-20T13:42:37.653Z,101292.00
2023-01-20T13:45:13.868Z,101296.31
2023-01-20T13:47:59.877Z,101297.59
2023-01-20T13:50:36.671Z,101294.25
2023-01-20T13:53:21.832Z,101302.09
2023-01-20T13:55:48.538Z,101311.09
2023-01-20T13:58:25.689Z,101308.53
2023-01-20T14:01:04.572Z,101314.19
2023-01-20T14:03:36.967Z,101313.53
2023-01-20T14:06:11.395Z,101312.38
2023-01-20T14:08:46.921Z,101314.50
2023-01-20T14:11:17.682Z,101325.91
2023-01-20T14:13:54.622Z,101327.81
2023-01-20T14:16:38.236Z,101327.97
2023-01-20T14:19:30.960Z,101335.03
2023-01-20T14:22:01.908Z,101333.34
2023-01-20T14:24:33.697Z,101342.59
2023-01-20T14:27:23.919Z,101337.06
2023-01-20T14:29:53.428Z,101337.00
2023-01-20T14:32:22.362Z,101332.03
2023-01-20T14:34:50.141Z,101349.59
2023-01-20T14:37:31.602Z,101338.91
2023-01-20T14:40:01.688Z,101344.47
2023-01-20T14:42:31.127Z,101346.25
2023-01-20T14:44:58.042Z,101357.34
2023-01-20T14:47:26.209Z,101359.66
2023-01-20T14:49:54.295Z,101352.94
2023-01-20T14:52:24.820Z,101365.06
2023-01-20T14:54:51.755Z,101362.94
2023-01-20T14:57:21.308Z,101372.34
2023-01-20T15:00:05.308Z,101368.00
2023-01-20T15:02:34.776Z,101374.06
2023-01-20T15:05:01.982Z,101376.28
2023-01-20T15:07:28.713Z,101388.63
2023-01-20T15:10:02.060Z,101382.09
2023-01-20T15:12:50.900Z,101379.06
2023-01-20T15:15:28.394Z,101378.00
2023-01-20T15:18:23.336Z,101385.16
2023-01-20T15:21:11.613Z,101388.19
2023-01-20T15:23:45.594Z,101390.41
2023-01-20T15:26:24.496Z,101391.78
2023-01-20T15:28:51.254Z,101390.13
2023-01-20T15:31:18.015Z,101392.88
2023-01-20T15:33:45.187Z,101393.69
2023-01-20T15:36:17.896Z,101402.22
2023-01-20T15:38:44.708Z,101401.69
2023-01-20T15:41:13.042Z,101410.47
2023-01-20T15:43:41.637Z,101405.56
2023-01-20T15:46:16.357Z,101413.78
2023-01-20T15:48:43.931Z,101410.78
2023-01-20T15:51:15.491Z,101413.25
2023-01-20T15:53:42.896Z,101410.28
2023-01-20T15:56:20.351Z,101424.84
2023-01-20T15:58:47.698Z,101427.59
2023-01-20T16:01:16.563Z,101423.28
2023-01-20T16:03:43.755Z,101428.19
2023-01-20T16:06:15.933Z,101430.94
2023-01-20T16:08:46.407Z,101429.31
2023-01-20T16:11:13.820Z,101440.81
2023-01-20T16:13:41.284Z,101438.66
2023-01-20T16:16:16.967Z,101452.38
2023-01-20T16:18:43.678Z,101455.66
2023-01-20T16:21:11.923Z,101457.88
2023-01-20T16:23:39.131Z,101457.06
2023-01-20T16:26:26.631Z,101466.66
2023-01-20T16:28:55.793Z,101470.78
2023-01-20T16:31:23.504Z,101467.75
2023-01-20T16:33:50.470Z,101471.34
2023-01-20T16:36:19.079Z,101479.03
2023-01-20T16:38:48.830Z,101477.94
2023-01-20T16:41:17.361Z,101490.00
2023-01-20T16:43:44.034Z,101488.63
2023-01-20T16:46:15.817Z,101491.91
2023-01-20T16:48:43.044Z,101487.53
2023-01-20T16:51:16.738Z,101495.22
2023-01-20T16:53:43.538Z,101489.75
2023-01-20T16:56:18.136Z,101501.22
2023-01-20T16:58:47.662Z,101498.50
2023-01-20T17:01:14.503Z,101501.22
2023-01-20T17:03:42.520Z,101507.53
2023-01-20T17:06:16.552Z,101499.59
2023-01-20T17:08:51.776Z,101498.78
2023-01-20T17:11:18.840Z,101496.31
2023-01-20T17:13:46.385Z,101503.44
2023-01-20T17:16:13.811Z,101514.38
2023-01-20T17:18:44.761Z,101529.13
2023-01-20T17:21:13.242Z,101518.50
2023-01-20T17:23:40.993Z,101521.22
2023-01-20T17:26:09.067Z,101519.31
2023-01-20T17:28:35.740Z,101525.88
2023-01-20T17:31:06.825Z,101527.25
2023-01-20T17:33:34.173Z,101544.19
2023-01-20T17:36:04.692Z,101545.03
2023-01-20T17:38:34.030Z,101549.13
2023-01-20T17:41:02.017Z,101555.97
2023-01-20T17:43:39.505Z,101551.88
2023-01-20T17:46:24.301Z,101570.19
2023-01-20T17:48:51.533Z,101573.75
2023-01-20T17:51:24.311Z,101572.09
2023-01-20T17:53:51.344Z,101578.13
2023-01-20T17:56:19.697Z,101586.31
2023-01-20T17:58:47.366Z,101574.84
2023-01-20T18:01:16.819Z,101589.91
2023-01-20T18:03:44.412Z,101593.72
2023-01-20T18:06:13.237Z,101585.50
2023-01-20T18:08:40.433Z,101587.97
2023-01-20T18:11:10.136Z,101589.06
2023-01-20T18:13:37.488Z,101591.81
2023-01-20T18:16:11.634Z,101593.16
2023-01-20T18:18:43.368Z,101588.78
2023-01-20T18:21:14.902Z,101604.34
2023-01-20T18:23:48.426Z,101608.47
2023-01-20T18:26:17.353Z,101613.38
2023-01-20T18:28:44.103Z,101615.56
2023-01-20T18:31:15.650Z,101607.09
2023-01-20T18:33:47.712Z,101616.66
2023-01-20T18:36:18.030Z,101618.03
2023-01-20T18:38:52.071Z,101619.94
2023-01-20T18:41:18.992Z,101617.75
2023-01-20T18:43:46.395Z,101606.53
2023-01-20T18:46:13.624Z,101624.03
2023-01-20T18:48:42.157Z,101625.13
2023-01-20T18:51:14.977Z,101625.38
2023-01-20T18:53:43.861Z,101625.91
2023-01-20T18:56:13.848Z,101626.50
2023-01-20T18:58:45.717Z,101628.38
2023-01-20T19:01:14.608Z,101641.22
2023-01-20T19:03:41.416Z,101645.03
2023-01-20T19:06:13.296Z,101644.25
2023-01-20T19:08:41.665Z,101652.16
2023-01-20T19:11:13.650Z,101652.69
2023-01-20T19:13:41.613Z,101652.69
2023-01-20T19:16:10.506Z,101655.41
2023-01-20T19:18:37.366Z,101664.44
2023-01-20T19:21:07.961Z,101657.59
2023-01-20T19:23:35.189Z,101653.75
2023-01-20T19:26:10.635Z,101661.97
2023-01-20T19:28:37.684Z,101668.53
2023-01-20T19:31:08.612Z,101671.81
2023-01-20T19:33:36.647Z,101671.81
2023-01-20T19:36:06.993Z,101683.81
2023-01-20T19:38:35.024Z,101690.38
2023-01-20T19:41:05.912Z,101693.66
2023-01-20T19:43:33.372Z,101702.69
2023-01-20T19:46:02.265Z,101701.03
2023-01-20T19:48:28.918Z,101695.31
2023-01-20T19:50:55.549Z,101695.31
2023-01-20T19:53:22.409Z,101693.38
2023-01-20T19:55:49.421Z,101695.84
2023-01-20T19:58:16.084Z,101698.06
2023-01-20T20:00:42.952Z,101702.41
2023-01-20T20:03:09.878Z,101693.13
2023-01-20T20:05:40.678Z,101706.81
2023-01-20T20:08:07.297Z,101713.34
2023-01-20T20:10:33.894Z,101704.06
2023-01-20T20:13:00.533Z,101711.16
2023-01-20T20:15:27.195Z,101716.63
2023-01-20T20:17:54.878Z,101723.75
2023-01-20T20:20:21.503Z,101733.03
2023-01-20T20:22:48.200Z,101727.56
2023-01-20T20:25:14.874Z,101739.06
2023-01-20T20:27:41.516Z,101726.22
2023-01-20T20:30:09.090Z,101729.22
2023-01-20T20:32:35.726Z,101738.56
2023-01-20T20:35:02.378Z,101745.13
2023-01-20T20:37:29.029Z,101742.38
2023-01-20T20:39:55.645Z,101757.41
2023-01-20T20:42:22.426Z,101747.31
2023-01-20T20:44:49.067Z,101748.69
2023-01-20T20:47:15.713Z,101754.47
2023-01-20T20:49:44.412Z,101764.84
2023-01-20T20:52:12.192Z,101761.56
2023-01-20T20:54:38.809Z,101761.03
2023-01-20T20:57:05.461Z,101776.66
2023-01-20T20:59:33.067Z,101778.56
2023-01-20T21:01:59.834Z,101773.13
2023-01-20T21:04:27.082Z,101778.88
2023-01-20T21:06:53.737Z,101784.63
2023-01-20T21:09:20.474Z,101788.47
2023-01-20T21:11:47.098Z,101795.03
2023-01-20T21:14:14.128Z,101793.97
2023-01-20T21:16:40.877Z,101794.25
2023-01-20T21:19:07.574Z,101793.97
2023-01-20T21:21:34.195Z,101789.06
2023-01-20T21:24:01.259Z,101786.91
2023-01-20T21:26:30.537Z,101788.00
2023-01-20T21:29:01.987Z,101792.94
2023-01-20T21:31:29.487Z,101793.22
2023-01-20T21:33:58.478Z,101794.03
2023-01-20T21:36:26.369Z,101802.25
2023-01-20T21:38:53.017Z,101808.03
2023-01-20T21:41:19.997Z,101797.88
2023-01-20T21:44:06.844Z,101803.38
2023-01-20T21:46:38.415Z,101817.59
2023-01-20T21:49:24.451Z,101818.97
2023-01-20T21:52:09.900Z,101820.88
2023-01-20T21:54:38.987Z,101821.16
2023-01-20T21:57:05.839Z,101835.13
2023-01-20T21:59:32.710Z,101824.72
2023-01-20T22:01:59.481Z,101832.66
2023-01-20T22:04:26.199Z,101833.47
2023-01-20T22:06:52.845Z,101834.31
2023-01-20T22:09:19.516Z,101845.81
2023-01-20T22:11:46.117Z,101854.03
2023-01-20T22:14:12.968Z,101851.03
2023-01-20T22:16:39.800Z,101848.53
2023-01-20T22:19:06.606Z,101846.38
2023-01-20T22:21:33.533Z,101846.06
2023-01-20T22:24:02.311Z,101843.88
2023-01-20T22:26:30.073Z,101843.88
2023-01-20T22:28:56.964Z,101855.38
2023-01-20T22:31:24.992Z,101860.59
2023-01-20T22:33:53.280Z,101849.09
2023-01-20T22:36:21.022Z,101846.06
2023-01-20T22:38:49.396Z,101853.19
2023-01-20T22:41:16.732Z,101862.78
2023-01-20T22:43:44.333Z,101857.31
2023-01-20T22:46:13.516Z,101861.41
2023-01-20T22:48:40.854Z,101863.03
2023-01-20T22:51:09.272Z,101864.69
2023-01-20T22:53:36.632Z,101876.47
2023-01-20T22:56:10.161Z,101868.25
2023-01-20T22:58:37.287Z,101869.09
2023-01-20T23:01:04.488Z,101884.41
2023-01-20T23:03:31.220Z,101875.09
2023-01-20T23:05:59.986Z,101880.03
2023-01-20T23:08:28.722Z,101893.19
2023-01-20T23:10:57.740Z,101883.84
2023-01-20T23:13:27.140Z,101889.91
2023-01-20T23:15:53.774Z,101883.84
2023-01-20T23:18:20.497Z,101888.78
2023-01-20T23:20:52.386Z,101883.28
2023-01-20T23:23:20.360Z,101884.41
2023-01-20T23:25:47.347Z,101887.94
2023-01-20T23:28:14.515Z,101895.91
2023-01-20T23:30:41.768Z,101887.69
2023-01-20T23:33:10.067Z,101903.59
2023-01-20T23:35:39.082Z,101899.19
2023-01-20T23:38:07.740Z,101902.78
2023-01-20T23:40:35.544Z,101894.53
2023-01-20T23:43:02.370Z,101907.44
2023-01-20T23:45:29.389Z,101890.16
2023-01-20T23:47:56.230Z,101903.84
2023-01-20T23:50:22.923Z,101899.19
2023-01-20T23:52:49.623Z,101905.22
2023-01-20T23:55:16.360Z,101907.16
2023-01-20T23:57:43.045Z,101905.78
